createdAt,value
2022-11-08T00:00:01.310Z,84.80
2022-11-08T00:02:28.725Z,83.43
2022-11-08T00:04:55.709Z,84.62
2022-11-08T00:07:40.908Z,84.66
2022-11-08T00:10:26.887Z,83.40
2022-11-08T00:13:12.267Z,83.72
2022-11-08T00:15:39.409Z,84.74
2022-11-08T00:18:27.630Z,83.56
2022-11-08T00:21:14.531Z,83.13
2022-11-08T00:24:04.011Z,83.21
2022-11-08T00:26:50.923Z,84.13
2022-11-08T00:29:38.131Z,84.17
2022-11-08T00:32:27.439Z,83.43
2022-11-08T00:35:14.487Z,83.68
2022-11-08T00:38:01.502Z,83.00
2022-11-08T00:40:48.568Z,84.50
2022-11-08T00:43:35.537Z,83.18
2022-11-08T00:46:22.611Z,83.58
2022-11-08T00:49:09.542Z,84.43
2022-11-08T00:51:57.047Z,83.33
2022-11-08T00:54:44.180Z,84.32
2022-11-08T00:57:53.631Z,83.79
2022-11-08T01:00:38.179Z,82.88
2022-11-08T01:03:39.966Z,83.98
2022-11-08T01:06:28.693Z,84.02
2022-11-08T01:09:15.815Z,83.35
2022-11-08T01:12:02.691Z,84.26
2022-11-08T01:14:49.803Z,83.20
2022-11-08T01:17:36.788Z,82.65
2022-11-08T01:20:24.051Z,84.05
2022-11-08T01:23:11.087Z,83.71
2022-11-08T01:26:07.285Z,83.41
2022-11-08T01:28:55.512Z,82.99
2022-11-08T01:31:51.102Z,82.65
2022-11-08T01:34:37.985Z,82.43
2022-11-08T01:37:25.039Z,82.55
2022-11-08T01:40:11.913Z,83.67
2022-11-08T01:42:58.986Z,82.29
2022-11-08T01:46:20.175Z,82.72
2022-11-08T01:49:16.569Z,83.53
2022-11-08T01:52:36.635Z,82.65
2022-11-08T01:55:29.416Z,82.67
2022-11-08T01:58:23.760Z,82.91
2022-11-08T02:01:12.403Z,82.69
2022-11-08T02:04:01.655Z,82.43
2022-11-08T02:06:50.635Z,82.51
2022-11-08T02:09:38.979Z,83.15
2022-11-08T02:12:27.764Z,82.82
2022-11-08T02:15:14.636Z,82.57
2022-11-08T02:18:01.688Z,82.64
2022-11-08T02:20:49.283Z,83.37
2022-11-08T02:23:46.655Z,83.19
2022-11-08T02:26:35.185Z,82.35
2022-11-08T02:29:53.956Z,83.33
2022-11-08T02:32:41.875Z,82.92
2022-11-08T02:35:40.807Z,82.86
2022-11-08T02:38:27.904Z,83.23
2022-11-08T02:41:16.897Z,83.38
2022-11-08T02:44:03.976Z,83.21
2022-11-08T02:46:50.925Z,82.32
2022-11-08T02:49:37.880Z,82.98
2022-11-08T02:52:25.345Z,82.38
2022-11-08T02:55:12.327Z,82.66
2022-11-08T02:57:59.235Z,81.94
2022-11-08T03:00:46.346Z,82.37
2022-11-08T03:03:33.306Z,83.27
2022-11-08T03:06:20.648Z,82.77
2022-11-08T03:09:07.659Z,82.29
2022-11-08T03:11:54.967Z,83.16
2022-11-08T03:14:42.071Z,82.78
2022-11-08T03:17:28.975Z,83.02
2022-11-08T03:20:15.959Z,82.76
2022-11-08T03:23:03.315Z,82.17
2022-11-08T03:25:50.892Z,82.97
2022-11-08T03:28:38.168Z,82.86
2022-11-08T03:31:25.302Z,82.78
2022-11-08T03:34:12.516Z,82.40
2022-11-08T03:36:59.535Z,82.07
2022-11-08T03:39:46.564Z,83.01
2022-11-08T03:42:33.414Z,82.63
2022-11-08T03:45:20.559Z,82.12
2022-11-08T03:48:07.616Z,82.33
2022-11-08T03:50:54.766Z,82.64
2022-11-08T03:53:41.765Z,82.34
2022-11-08T03:56:28.819Z,82.92
2022-11-08T03:59:15.704Z,82.86
2022-11-08T04:02:02.769Z,82.19
2022-11-08T04:04:49.861Z,82.49
2022-11-08T04:07:36.800Z,82.44
2022-11-08T04:10:25.461Z,82.29
2022-11-08T04:13:11.312Z,82.12
2022-11-08T04:15:58.332Z,82.09
2022-11-08T04:18:43.592Z,82.35
2022-11-08T04:21:40.898Z,82.80
2022-11-08T04:24:28.188Z,82.27
2022-11-08T04:27:15.138Z,82.53
2022-11-08T04:30:02.120Z,82.30
2022-11-08T04:32:48.953Z,82.79
2022-11-08T04:35:36.118Z,82.81
2022-11-08T04:38:23.254Z,82.67
2022-11-08T04:41:10.327Z,82.87
2022-11-08T04:43:57.103Z,82.79
2022-11-08T04:46:47.084Z,82.86
2022-11-08T04:49:33.991Z,82.87
2022-11-08T04:52:20.965Z,82.69
2022-11-08T04:55:07.792Z,82.17
2022-11-08T04:57:55.538Z,82.74
2022-11-08T05:00:42.413Z,82.62
2022-11-08T05:03:29.374Z,82.46
2022-11-08T05:06:19.923Z,82.26
2022-11-08T05:09:07.663Z,82.30
2022-11-08T05:11:54.723Z,82.68
2022-11-08T05:14:41.875Z,82.19
2022-11-08T05:17:28.721Z,82.69
2022-11-08T05:20:14.428Z,82.82
2022-11-08T05:23:00.208Z,82.53
2022-11-08T05:25:47.380Z,82.57
2022-11-08T05:28:34.666Z,82.19
2022-11-08T05:31:21.899Z,82.39
2022-11-08T05:34:08.836Z,82.44
2022-11-08T05:36:55.796Z,81.96
2022-11-08T05:39:42.626Z,82.18
2022-11-08T05:42:29.640Z,82.15
2022-11-08T05:45:16.549Z,82.35
2022-11-08T05:48:07.938Z,82.74
2022-11-08T05:50:55.710Z,82.56
2022-11-08T05:53:42.683Z,82.19
2022-11-08T05:56:30.057Z,82.03
2022-11-08T05:59:17.061Z,82.50
2022-11-08T06:02:04.107Z,82.22
2022-11-08T06:04:51.498Z,82.32
2022-11-08T06:07:38.364Z,82.37
2022-11-08T06:10:26.059Z,82.03
2022-11-08T06:13:12.964Z,82.14
2022-11-08T06:16:00.009Z,82.16
2022-11-08T06:18:46.881Z,82.28
2022-11-08T06:21:39.294Z,82.57
2022-11-08T06:24:26.598Z,82.27
2022-11-08T06:27:13.671Z,82.14
2022-11-08T06:30:00.873Z,82.31
2022-11-08T06:32:47.927Z,82.20
2022-11-08T06:35:35.223Z,82.44
2022-11-08T06:38:23.115Z,81.82
2022-11-08T06:41:10.130Z,82.66
2022-11-08T06:43:57.151Z,82.42
2022-11-08T06:46:44.094Z,82.10
2022-11-08T06:49:31.087Z,82.64
2022-11-08T06:52:18.151Z,82.21
2022-11-08T06:55:05.137Z,81.90
2022-11-08T06:57:53.639Z,82.19
2022-11-08T07:00:41.625Z,82.22
2022-11-08T07:03:29.879Z,81.94
2022-11-08T07:05:56.755Z,82.29
2022-11-08T07:08:43.740Z,82.08
2022-11-08T07:11:30.593Z,82.05
2022-11-08T07:14:17.651Z,82.28
2022-11-08T07:17:04.533Z,82.07
2022-11-08T07:19:51.661Z,82.15
2022-11-08T07:22:38.735Z,82.14
2022-11-08T07:25:26.266Z,82.15
2022-11-08T07:28:22.987Z,82.01
2022-11-08T07:31:10.108Z,82.09
2022-11-08T07:33:57.032Z,82.14
2022-11-08T07:36:44.203Z,82.02
2022-11-08T07:39:31.297Z,81.89
2022-11-08T07:42:18.464Z,82.11
2022-11-08T07:45:09.708Z,82.10
2022-11-08T07:47:56.647Z,81.92
2022-11-08T07:50:43.636Z,81.99
2022-11-08T07:53:31.268Z,82.15
2022-11-08T07:56:18.149Z,81.50
2022-11-08T07:59:05.094Z,82.04
2022-11-08T08:01:52.021Z,82.05
2022-11-08T08:04:39.200Z,82.04
2022-11-08T08:07:26.931Z,81.92
2022-11-08T08:10:13.988Z,82.19
2022-11-08T08:13:00.959Z,81.97
2022-11-08T08:15:47.956Z,81.69
2022-11-08T08:18:35.528Z,81.93
2022-11-08T08:21:22.624Z,81.82
2022-11-08T08:24:09.708Z,81.90
2022-11-08T08:26:56.759Z,81.91
2022-11-08T08:29:43.843Z,81.84
2022-11-08T08:32:31.776Z,82.07
2022-11-08T08:35:18.704Z,82.35
2022-11-08T08:38:05.714Z,82.11
2022-11-08T08:40:54.011Z,82.06
2022-11-08T08:43:41.131Z,82.14
2022-11-08T08:46:28.120Z,82.16
2022-11-08T08:49:15.099Z,82.18
2022-11-08T08:52:01.923Z,82.20
2022-11-08T08:54:49.102Z,82.01
2022-11-08T08:57:35.879Z,81.71
2022-11-08T09:03:31.355Z,82.33
2022-11-08T09:06:18.903Z,82.03
2022-11-08T09:09:05.823Z,82.39
2022-11-08T09:11:52.756Z,81.75
2022-11-08T09:14:40.007Z,81.92
2022-11-08T09:17:27.097Z,81.94
2022-11-08T09:20:14.186Z,82.04
2022-11-08T09:23:01.684Z,81.43
2022-11-08T09:25:48.709Z,82.17
2022-11-08T09:28:36.042Z,81.91
2022-11-08T09:31:25.819Z,82.11
2022-11-08T09:34:15.103Z,82.13
2022-11-08T09:37:04.480Z,82.02
2022-11-08T09:39:51.439Z,81.45
2022-11-08T09:42:54.058Z,81.98
2022-11-08T09:45:44.874Z,82.11
2022-11-08T09:48:42.915Z,81.70
2022-11-08T09:51:49.754Z,82.21
2022-11-08T09:54:48.022Z,81.62
2022-11-08T09:57:55.366Z,82.08
2022-11-08T10:00:42.408Z,82.19
2022-11-08T10:03:34.346Z,82.21
2022-11-08T10:06:24.155Z,82.08
2022-11-08T10:09:26.213Z,82.42
2022-11-08T10:12:37.685Z,82.06
2022-11-08T10:15:41.239Z,82.05
2022-11-08T10:19:06.790Z,81.97
2022-11-08T10:22:21.699Z,82.12
2022-11-08T10:25:19.503Z,82.28
2022-11-08T10:28:06.731Z,81.87
2022-11-08T10:30:56.789Z,81.90
2022-11-08T10:33:49.298Z,82.29
2022-11-08T10:36:46.298Z,82.27
2022-11-08T10:39:58.036Z,81.77
2022-11-08T10:43:04.322Z,81.89
2022-11-08T10:45:53.699Z,81.67
2022-11-08T10:48:40.711Z,81.53
2022-11-08T10:51:28.496Z,82.43
2022-11-08T10:54:15.473Z,82.42
2022-11-08T10:57:15.130Z,81.66
2022-11-08T11:00:03.435Z,81.85
2022-11-08T11:02:55.510Z,81.68
2022-11-08T11:06:01.934Z,81.72
2022-11-08T11:08:49.682Z,82.37
2022-11-08T11:11:52.137Z,82.33
2022-11-08T11:14:43.322Z,82.30
2022-11-08T11:17:40.216Z,82.50
2022-11-08T11:20:39.600Z,81.91
2022-11-08T11:23:31.278Z,81.63
2022-11-08T11:26:18.919Z,81.85
2022-11-08T11:29:24.227Z,81.62
2022-11-08T11:32:13.288Z,82.09
2022-11-08T11:35:10.538Z,81.92
2022-11-08T11:38:05.251Z,81.96
2022-11-08T11:41:06.975Z,82.22
2022-11-08T11:44:06.712Z,81.69
2022-11-08T11:47:07.577Z,81.98
2022-11-08T11:49:55.695Z,81.33
2022-11-08T11:52:42.720Z,81.69
2022-11-08T11:55:35.452Z,81.75
2022-11-08T11:58:47.145Z,81.43
2022-11-08T12:02:00.356Z,81.45
2022-11-08T12:05:09.091Z,81.51
2022-11-08T12:08:06.462Z,82.35
2022-11-08T12:11:15.084Z,81.44
2022-11-08T12:14:07.946Z,82.04
2022-11-08T12:17:05.727Z,82.23
2022-11-08T12:19:55.216Z,82.11
2022-11-08T12:23:03.267Z,82.07
2022-11-08T12:26:22.459Z,82.29
2022-11-08T12:29:38.915Z,81.92
2022-11-08T12:32:43.939Z,81.54
2022-11-08T12:35:54.583Z,81.75
2022-11-08T12:38:51.291Z,82.27
2022-11-08T12:41:46.451Z,82.32
2022-11-08T12:45:10.842Z,81.32
2022-11-08T12:48:06.979Z,81.88
2022-11-08T12:51:01.780Z,82.36
2022-11-08T12:54:19.392Z,82.08
2022-11-08T12:57:08.243Z,82.04
2022-11-08T13:00:02.793Z,81.56
2022-11-08T13:02:54.107Z,81.77
2022-11-08T13:05:48.251Z,81.21
2022-11-08T13:08:51.326Z,81.25
2022-11-08T13:11:50.082Z,81.29
2022-11-08T13:14:41.396Z,82.23
2022-11-08T13:17:43.703Z,81.05
2022-11-08T13:20:59.214Z,82.20
2022-11-08T13:23:50.927Z,81.61
2022-11-08T13:26:48.827Z,81.59
2022-11-08T13:29:44.827Z,82.07
2022-11-08T13:32:48.569Z,81.72
2022-11-08T13:36:07.370Z,81.14
2022-11-08T13:39:03.260Z,81.95
2022-11-08T13:41:50.309Z,81.63
2022-11-08T13:45:14.379Z,81.60
2022-11-08T13:48:03.852Z,81.23
2022-11-08T13:50:56.337Z,81.17
2022-11-08T13:53:43.287Z,81.38
2022-11-08T13:56:59.744Z,81.72
2022-11-08T13:59:52.330Z,81.84
2022-11-08T14:02:45.788Z,80.90
2022-11-08T14:05:42.658Z,81.09
2022-11-08T14:08:37.560Z,81.02
2022-11-08T14:11:39.124Z,81.21
2022-11-08T14:14:47.628Z,81.24
2022-11-08T14:17:49.345Z,81.86
2022-11-08T14:20:45.235Z,81.56
2022-11-08T14:23:40.083Z,81.83
2022-11-08T14:26:41.631Z,81.27
2022-11-08T14:29:28.755Z,81.82
2022-11-08T14:32:35.405Z,81.61
2022-11-08T14:35:45.665Z,81.05
2022-11-08T15:04:24.371Z,81.70
2022-11-08T15:07:17.538Z,81.32
2022-11-08T15:10:05.061Z,81.02
2022-11-08T15:12:51.851Z,81.11
2022-11-08T15:15:40.571Z,81.72
2022-11-08T15:18:37.908Z,81.56
2022-11-08T15:21:26.674Z,81.71
2022-11-08T15:24:14.740Z,81.08
2022-11-08T15:27:34.287Z,81.07
2022-11-08T15:30:26.742Z,81.32
2022-11-08T15:33:13.859Z,81.04
2022-11-08T15:36:00.811Z,81.35
2022-11-08T15:38:57.996Z,81.51
2022-11-08T15:41:57.314Z,81.64
2022-11-08T15:44:45.296Z,81.62
2022-11-08T15:47:56.324Z,81.58
2022-11-08T15:50:47.746Z,81.55
2022-11-08T15:53:35.076Z,81.25
2022-11-08T15:56:24.627Z,81.05
2022-11-08T15:59:11.595Z,81.24
2022-11-08T16:01:58.968Z,81.09
2022-11-08T16:04:47.883Z,81.24
2022-11-08T16:07:35.333Z,81.05
2022-11-08T16:10:22.239Z,81.26
2022-11-08T16:13:09.834Z,81.42
2022-11-08T16:15:58.000Z,81.55
2022-11-08T16:18:45.334Z,81.51
2022-11-08T16:21:34.039Z,81.41
2022-11-08T16:24:21.603Z,81.21
2022-11-08T16:27:09.063Z,81.05
2022-11-08T16:29:56.316Z,81.10
2022-11-08T16:32:43.117Z,80.98
2022-11-08T16:35:30.136Z,81.16
2022-11-08T16:38:17.190Z,81.10
2022-11-08T16:41:04.381Z,81.19
2022-11-08T16:43:52.239Z,81.17
2022-11-08T16:46:41.072Z,81.32
2022-11-08T16:49:38.606Z,81.23
2022-11-08T16:52:25.663Z,80.95
2022-11-08T16:55:16.542Z,81.36
2022-11-08T16:58:06.055Z,81.05
2022-11-08T17:00:53.969Z,81.34
2022-11-08T17:03:43.043Z,81.27
2022-11-08T17:06:38.181Z,81.25
2022-11-08T17:09:25.463Z,81.41
2022-11-08T17:12:12.367Z,81.28
2022-11-08T17:14:59.279Z,81.13
2022-11-08T17:17:46.428Z,81.31
2022-11-08T17:20:35.678Z,81.05
2022-11-08T17:23:22.719Z,80.99
2022-11-08T17:26:09.846Z,81.68
2022-11-08T17:28:57.610Z,80.87
2022-11-08T17:31:44.511Z,81.19
2022-11-08T17:34:31.540Z,81.08
2022-11-08T17:37:18.569Z,81.19
2022-11-08T17:40:05.593Z,80.94
2022-11-08T17:42:52.987Z,80.90
2022-11-08T17:45:40.080Z,81.13
2022-11-08T17:48:26.999Z,81.25
2022-11-08T17:51:13.948Z,80.87
2022-11-08T17:54:01.212Z,81.05
2022-11-08T17:56:48.091Z,81.06
2022-11-08T17:59:35.178Z,80.95
2022-11-08T18:02:22.176Z,81.13
2022-11-08T18:05:09.210Z,81.07
2022-11-08T18:07:36.708Z,80.98
2022-11-08T18:10:23.776Z,80.98
2022-11-08T18:13:10.702Z,81.00
2022-11-08T18:15:58.054Z,81.00
2022-11-08T18:18:45.116Z,80.41
2022-11-08T18:21:35.662Z,80.97
2022-11-08T18:24:24.900Z,80.95
2022-11-08T18:27:11.955Z,80.92
2022-11-08T18:29:58.883Z,81.18
2022-11-08T18:32:25.808Z,81.11
2022-11-08T18:34:52.886Z,81.08
2022-11-08T18:37:42.697Z,81.06
2022-11-08T18:40:30.260Z,80.71
2022-11-08T18:43:18.291Z,80.98
2022-11-08T18:46:05.339Z,81.10
2022-11-08T18:48:53.050Z,81.24
2022-11-08T18:51:42.595Z,80.96
2022-11-08T18:54:30.493Z,80.87
2022-11-08T18:57:17.342Z,81.12
2022-11-08T19:00:04.452Z,81.34
2022-11-08T19:02:51.288Z,81.14
2022-11-08T19:05:38.524Z,81.10
2022-11-08T19:08:25.798Z,81.04
2022-11-08T19:11:13.832Z,80.96
2022-11-08T19:14:01.691Z,80.93
2022-11-08T19:16:49.310Z,80.75
2022-11-08T19:19:36.290Z,81.03
2022-11-08T19:22:24.224Z,81.22
2022-11-08T19:25:11.159Z,80.52
2022-11-08T19:27:58.358Z,80.77
2022-11-08T19:30:45.253Z,80.74
2022-11-08T19:33:32.268Z,81.29
2022-11-08T19:36:27.917Z,80.72
2022-11-08T19:39:17.143Z,80.82
2022-11-08T19:42:04.040Z,80.94
2022-11-08T19:44:50.948Z,80.61
2022-11-08T19:47:37.831Z,80.68
2022-11-08T19:50:25.252Z,81.07
2022-11-08T19:53:12.097Z,80.71
2022-11-08T19:55:58.979Z,80.65
2022-11-08T19:58:45.915Z,80.81
2022-11-08T20:01:50.183Z,80.80
2022-11-08T20:04:37.782Z,81.36
2022-11-08T20:07:25.603Z,80.97
2022-11-08T20:10:13.770Z,80.59
2022-11-08T20:13:00.601Z,81.25
2022-11-08T20:15:47.587Z,81.19
2022-11-08T20:18:35.636Z,80.86
2022-11-08T20:21:25.483Z,81.00
2022-11-08T20:24:12.394Z,80.74
2022-11-08T20:27:00.081Z,80.81
2022-11-08T20:29:47.089Z,80.93
2022-11-08T20:32:34.215Z,80.67
2022-11-08T20:35:23.523Z,80.63
2022-11-08T20:38:10.638Z,80.49
2022-11-08T20:40:58.663Z,80.85
2022-11-08T20:43:49.410Z,80.53
2022-11-08T20:46:39.581Z,80.69
2022-11-08T20:49:27.567Z,80.67
2022-11-08T20:52:14.667Z,80.68
2022-11-08T20:55:01.678Z,81.10
2022-11-08T20:57:48.608Z,81.08
2022-11-08T21:00:57.327Z,81.10
2022-11-08T21:03:44.172Z,80.46
2022-11-08T21:06:36.205Z,80.63
2022-11-08T21:09:37.468Z,80.60
2022-11-08T21:12:29.675Z,81.26
2022-11-08T21:15:16.497Z,80.68
2022-11-08T21:18:03.627Z,81.14
2022-11-08T21:20:50.456Z,80.79
2022-11-08T21:23:38.758Z,81.07
2022-11-08T21:26:26.983Z,80.85
2022-11-08T21:29:14.306Z,80.38
2022-11-08T21:32:01.231Z,80.96
2022-11-08T21:34:48.347Z,80.89
2022-11-08T21:37:35.357Z,80.98
2022-11-08T21:40:22.633Z,81.07
2022-11-08T21:43:09.616Z,81.02
2022-11-08T21:45:57.327Z,80.54
2022-11-08T21:48:44.515Z,81.14
2022-11-08T21:51:32.198Z,80.41
2022-11-08T21:54:19.302Z,80.61
2022-11-08T21:57:06.495Z,81.24
2022-11-08T21:59:53.325Z,80.92
2022-11-08T22:02:40.306Z,81.33
2022-11-08T22:05:28.646Z,80.94
2022-11-08T22:08:15.842Z,81.14
2022-11-08T22:11:05.361Z,81.28
2022-11-08T22:13:52.594Z,80.37
2022-11-08T22:16:39.693Z,81.33
2022-11-08T22:19:26.898Z,80.90
2022-11-08T22:22:13.793Z,80.83
2022-11-08T22:25:01.109Z,81.02
2022-11-08T22:27:47.928Z,80.94
2022-11-08T22:30:35.140Z,80.83
2022-11-08T22:33:21.931Z,81.29
2022-11-08T22:36:09.260Z,81.09
2022-11-08T22:38:56.205Z,80.84
2022-11-08T22:41:43.829Z,80.89
2022-11-08T22:44:31.077Z,81.20
2022-11-08T22:47:18.185Z,80.47
2022-11-08T22:50:05.114Z,80.98
2022-11-08T22:52:52.260Z,81.35
2022-11-08T22:55:39.087Z,80.46
2022-11-08T22:58:26.047Z,80.36
2022-11-08T23:01:13.403Z,80.49
2022-11-08T23:04:07.373Z,80.58
2022-11-08T23:06:54.358Z,81.20
2022-11-08T23:09:41.434Z,80.51
2022-11-08T23:12:28.518Z,81.14
2022-11-08T23:15:14.166Z,81.33
2022-11-08T23:18:01.059Z,80.46
2022-11-08T23:20:46.470Z,80.48
2022-11-08T23:23:32.211Z,80.20
2022-11-08T23:26:19.155Z,80.15
2022-11-08T23:29:04.506Z,80.45
2022-11-08T23:31:57.241Z,80.20
2022-11-08T23:34:44.254Z,79.97
2022-11-08T23:37:31.235Z,80.18
2022-11-08T23:40:16.962Z,80.04
2022-11-08T23:43:02.624Z,80.77
2022-11-08T23:45:49.797Z,80.36
2022-11-08T23:48:37.103Z,80.42
2022-11-08T23:51:24.923Z,81.17
2022-11-08T23:54:11.926Z,80.19
2022-11-08T23:56:59.059Z,80.28
2022-11-08T23:59:45.987Z,81.19
